Radiosonde details



Informationen :

Serial : D26013377
Type : Graw DFM
Frequency : 403.210MHz
Launchsite : -
Nearest town : Wells, US (32.7km)

Altitude (Max) : 35594m at 2026-09-03 00:54:34
Speed (Max) : 144km/h at altitude 12675m

Average speed : 36km/h
Average ascent rate : 5m/s
Average descent rate : -17m/s
Ascent rate (Max) : 10.2m/s
Descent rate (Max): -44.2m/s

First frame :
KE7DJD at 2026-09-02 23:54:49 at altitude 16797m (OG: 16755m)
Last frame :
KE7DJD at 2026-09-03 01:20:06 at altitude 9698m (OG: 9656m)

Flighttime : 1h25m17s
Ascent time : 59m45s
Descent time : 25m32s
Uptime : -
Killtimer : -

Distance (Straight line distance): 20km

Distance (Route):


Frames : 236


Measurement :

Temperature : -33.5°C
Humidity : 0%
Pressure : 0hPa


Vertical profile (SkewT) :


Elevation profile :



Receiving stations :


Receiver Frames First received Last received
KE7DJD 236 2026-09-02 23:54:49 2026-09-03 01:20:06

Share per receiver :



All frames :


Receiver Date Latitude Longitude Direction Speed Altitude Climb Temperature Humidity Pressure Voltage Killtimer Uptime BKT XDATA
KE7DJD2026-09-03 01:20:0641.30893-114.6739858°115km/h9698m-8.6m/s-33.5°C0%0hPa0V00:00:0000:00:0000:00:00
KE7DJD2026-09-03 01:19:4641.30553-114.6806255°113km/h9880m-8.6m/s-35.6°C0%0hPa0V00:00:0000:00:0000:00:00
KE7DJD2026-09-03 01:19:2241.30174-114.6874653°106km/h10077m-8.8m/s-36.7°C0%0hPa0V00:00:0000:00:0000:00:00
KE7DJD2026-09-03 01:18:4141.29532-114.6999761°108km/h10440m-8.7m/s-39.7°C0%0hPa0V00:00:0000:00:0000:00:00
KE7DJD2026-09-03 01:18:1841.29255-114.7066761°100km/h10634m-8.7m/s-41.3°C0%0hPa0V00:00:0000:00:0000:00:00
KE7DJD2026-09-03 01:17:5841.28974-114.7130361°113km/h10818m-9.1m/s-41.9°C0%0hPa0V00:00:0000:00:0000:00:00
KE7DJD2026-09-03 01:17:3641.28665-114.7205766°130km/h11010m-9.4m/s-42.9°C0%0hPa0V00:00:0000:00:0000:00:00
KE7DJD2026-09-03 01:17:1641.28399-114.7292471°133km/h11212m-9.5m/s-42.8°C0%0hPa0V00:00:0000:00:0000:00:00
KE7DJD2026-09-03 01:16:5541.28164-114.7377971°126km/h11418m-9.9m/s-43.2°C0%0hPa0V00:00:0000:00:0000:00:00
KE7DJD2026-09-03 01:16:3441.27934-114.7464872°131km/h11628m-10.2m/s-43.4°C0%0hPa0V00:00:0000:00:0000:00:00
KE7DJD2026-09-03 01:16:1341.27712-114.7548473°130km/h11832m-10.1m/s-44.1°C0%0hPa0V00:00:0000:00:0000:00:00
KE7DJD2026-09-03 01:15:5341.27508-114.7634473°124km/h12048m-10.3m/s-45.3°C0%0hPa0V00:00:0000:00:0000:00:00
KE7DJD2026-09-03 01:15:3241.27308-114.7713772°124km/h12254m-10.3m/s-46.3°C0%0hPa0V00:00:0000:00:0000:00:00
KE7DJD2026-09-03 01:15:1241.27094-114.7793072°119km/h12471m-10.3m/s-46.5°C0%0hPa0V00:00:0000:00:0000:00:00
KE7DJD2026-09-03 01:14:5141.26888-114.7875475°142km/h12675m-10.1m/s-47.1°C0%0hPa0V00:00:0000:00:0000:00:00
KE7DJD2026-09-03 01:14:3141.26695-114.7971979°141km/h12891m-10.4m/s-45.2°C0%0hPa0V00:00:0000:00:0000:00:00
KE7DJD2026-09-03 01:14:0941.26573-114.8065283°130km/h13104m-10.0m/s-46.1°C0%0hPa0V00:00:0000:00:0000:00:00
KE7DJD2026-09-03 01:13:4941.26484-114.8148582°120km/h13308m-10.2m/s-47.8°C0%0hPa0V00:00:0000:00:0000:00:00
KE7DJD2026-09-03 01:13:2941.26338-114.8229975°119km/h13530m-10.8m/s-48.7°C0%0hPa0V00:00:0000:00:0000:00:00
KE7DJD2026-09-03 01:13:0941.26153-114.8303469°110km/h13751m-11.2m/s-47.8°C0%0hPa0V00:00:0000:00:0000:00:00
KE7DJD2026-09-03 01:12:4841.25917-114.8370363°111km/h13988m-11.6m/s-48.0°C0%0hPa0V00:00:0000:00:0000:00:00
KE7DJD2026-09-03 01:12:2841.25642-114.8440666°120km/h14224m-11.9m/s-48.7°C0%0hPa0V00:00:0000:00:0000:00:00
KE7DJD2026-09-03 01:12:0741.25434-114.8517778°104km/h14481m-12.3m/s-47.9°C0%0hPa0V00:00:0000:00:0000:00:00
KE7DJD2026-09-03 01:11:4641.25335-114.8576772°73km/h14728m-12.3m/s-48.3°C0%0hPa0V00:00:0000:00:0000:00:00
KE7DJD2026-09-03 01:11:2641.25171-114.8621055°78km/h14988m-12.5m/s-49.3°C0%0hPa0V00:00:0000:00:0000:00:00
KE7DJD2026-09-03 01:11:0541.24929-114.8664950°73km/h15239m-12.9m/s-48.0°C0%0hPa0V00:00:0000:00:0000:00:00
KE7DJD2026-09-03 01:10:4541.24638-114.8704045°82km/h15511m-13.2m/s-50.1°C0%0hPa0V00:00:0000:00:0000:00:00
KE7DJD2026-09-03 01:10:2441.24338-114.8749556°93km/h15779m-13.7m/s-50.6°C0%0hPa0V00:00:0000:00:0000:00:00
KE7DJD2026-09-03 01:10:0441.24158-114.8800566°69km/h16063m-13.4m/s-48.9°C0%0hPa0V00:00:0000:00:0000:00:00
KE7DJD2026-09-03 01:09:4441.23976-114.8843061°77km/h16336m-13.8m/s-49.4°C0%0hPa0V00:00:0000:00:0000:00:00
KE7DJD2026-09-03 01:09:2341.23783-114.8890064°73km/h16608m-10.9m/s-48.7°C0%0hPa0V00:00:0000:00:0000:00:00
KE7DJD2026-09-03 01:09:0141.23583-114.8932259°68km/h16848m-11.6m/s-49.4°C0%0hPa0V00:00:0000:00:0000:00:00
KE7DJD2026-09-03 01:08:4141.23444-114.8976472°69km/h17090m-11.6m/s-49.4°C0%0hPa0V00:00:0000:00:0000:00:00
KE7DJD2026-09-03 01:08:2041.23352-114.9024381°62km/h17343m-12.1m/s-48.0°C0%0hPa0V00:00:0000:00:0000:00:00
KE7DJD2026-09-03 01:07:5941.23294-114.9052856°31km/h17599m-12.2m/s-47.0°C0%0hPa0V00:00:0000:00:0000:00:00
KE7DJD2026-09-03 01:07:3841.23159-114.9067129°38km/h17860m-12.2m/s-48.9°C0%0hPa0V00:00:0000:00:0000:00:00
KE7DJD2026-09-03 01:07:1841.22951-114.9080020°55km/h18110m-12.9m/s-49.3°C0%0hPa0V00:00:0000:00:0000:00:00
KE7DJD2026-09-03 01:06:5641.22743-114.9099446°40km/h18372m-11.4m/s-49.5°C0%0hPa0V00:00:0000:00:0000:00:00
KE7DJD2026-09-03 01:06:3641.22623-114.9118257°38km/h18641m-13.2m/s-48.1°C0%0hPa0V00:00:0000:00:0000:00:00
KE7DJD2026-09-03 01:06:1541.22568-114.9134497°22km/h18900m-12.6m/s-47.3°C0%0hPa0V00:00:0000:00:0000:00:00
KE7DJD2026-09-03 01:05:5541.22592-114.91501119°20km/h19166m-13.3m/s-46.9°C0%0hPa0V00:00:0000:00:0000:00:00
KE7DJD2026-09-03 01:05:3541.22602-114.9157024°7km/h19454m-13.9m/s-48.3°C0%0hPa0V00:00:0000:00:0000:00:00
KE7DJD2026-09-03 01:05:1441.22573-114.9158935°5km/h19728m-13.6m/s-50.6°C0%0hPa0V00:00:0000:00:0000:00:00
KE7DJD2026-09-03 01:04:5441.22544-114.9164461°15km/h20031m-14.9m/s-49.6°C0%0hPa0V00:00:0000:00:0000:00:00
KE7DJD2026-09-03 01:04:3341.22445-114.9170919°31km/h20336m-15.3m/s-49.4°C0%0hPa0V00:00:0000:00:0000:00:00
KE7DJD2026-09-03 01:04:1341.22311-114.9183273°31km/h20660m-15.5m/s-48.9°C0%0hPa0V00:00:0000:00:0000:00:00
KE7DJD2026-09-03 01:03:5141.22295-114.9195661°15km/h20989m-15.4m/s-47.8°C0%0hPa0V00:00:0000:00:0000:00:00
KE7DJD2026-09-03 01:03:3041.22277-114.9198345°4km/h21317m-15.8m/s-48.0°C0%0hPa0V00:00:0000:00:0000:00:00
KE7DJD2026-09-03 01:03:1041.22330-114.91913224°20km/h21651m-16.5m/s-47.2°C0%0hPa0V00:00:0000:00:0000:00:00
KE7DJD2026-09-03 01:02:4941.22363-114.91867211°4km/h21976m-13.7m/s-48.2°C0%0hPa0V00:00:0000:00:0000:00:00
KE7DJD2026-09-03 01:02:2841.22357-114.9184414°5km/h22318m-18.0m/s-48.1°C0%0hPa0V00:00:0000:00:0000:00:00
KE7DJD2026-09-03 01:02:0841.22332-114.91821330°7km/h22705m-18.2m/s-48.1°C0%0hPa0V00:00:0000:00:0000:00:00
KE7DJD2026-09-03 01:01:4641.22366-114.91837179°18km/h23104m-18.7m/s-46.0°C0%0hPa0V00:00:0000:00:0000:00:00
KE7DJD2026-09-03 01:01:2641.22403-114.91772233°15km/h23513m-19.5m/s-47.2°C0%0hPa0V00:00:0000:00:0000:00:00
KE7DJD2026-09-03 01:01:0641.22436-114.91612289°24km/h23916m-19.8m/s-47.6°C0%0hPa0V00:00:0000:00:0000:00:00
KE7DJD2026-09-03 01:00:4541.22375-114.91538349°15km/h24320m-20.6m/s-47.2°C0%0hPa0V00:00:0000:00:0000:00:00
KE7DJD2026-09-03 01:00:2541.22342-114.91512129°7km/h24764m-21.3m/s-44.9°C0%0hPa0V00:00:0000:00:0000:00:00
KE7DJD2026-09-03 01:00:0441.22392-114.91538163°16km/h25209m-23.4m/s-44.0°C0%0hPa0V00:00:0000:00:0000:00:00
KE7DJD2026-09-03 00:59:4441.22471-114.91514209°26km/h25712m-24.1m/s-42.9°C0%0hPa0V00:00:0000:00:0000:00:00
KE7DJD2026-09-03 00:59:2341.22566-114.91450223°20km/h26202m-23.1m/s-43.0°C0%0hPa0V00:00:0000:00:0000:00:00
KE7DJD2026-09-03 00:59:0241.22617-114.91355201°15km/h26722m-25.6m/s-42.4°C0%0hPa0V00:00:0000:00:0000:00:00
KE7DJD2026-09-03 00:58:4241.22703-114.91295249°20km/h27242m-27.2m/s-40.4°C0%0hPa0V00:00:0000:00:0000:00:00
KE7DJD2026-09-03 00:58:2241.22786-114.91144222°29km/h27824m-28.8m/s-39.0°C0%0hPa0V00:00:0000:00:0000:00:00
KE7DJD2026-09-03 00:58:0141.22870-114.90995278°31km/h28412m-30.4m/s-39.6°C0%0hPa0V00:00:0000:00:0000:00:00
KE7DJD2026-09-03 00:57:4141.22861-114.90885276°16km/h29071m-33.0m/s-40.2°C0%0hPa0V00:00:0000:00:0000:00:00
KE7DJD2026-09-03 00:57:2041.22875-114.90775229°24km/h29715m-32.3m/s-39.1°C0%0hPa0V00:00:0000:00:0000:00:00
KE7DJD2026-09-03 00:57:0041.22918-114.90684320°16km/h30428m-36.0m/s-36.9°C0%0hPa0V00:00:0000:00:0000:00:00
KE7DJD2026-09-03 00:56:3941.22932-114.90594265°22km/h31152m-37.5m/s-35.8°C0%0hPa0V00:00:0000:00:0000:00:00
KE7DJD2026-09-03 00:56:1941.22923-114.90524232°15km/h31950m-39.6m/s-32.7°C0%0hPa0V00:00:0000:00:0000:00:00
KE7DJD2026-09-03 00:55:5841.22967-114.90442224°9km/h32826m-43.1m/s-31.2°C0%0hPa0V00:00:0000:00:0000:00:00
KE7DJD2026-09-03 00:55:3841.23019-114.90377238°5km/h33610m-34.2m/s-30.6°C0%0hPa0V00:00:0000:00:0000:00:00
KE7DJD2026-09-03 00:55:1641.23075-114.90263217°24km/h34310m-35.3m/s-30.7°C0%0hPa0V00:00:0000:00:0000:00:00
KE7DJD2026-09-03 00:54:5541.23048-114.90198137°18km/h35118m-44.2m/s-29.4°C0%0hPa0V00:00:0000:00:0000:00:00
KE7DJD2026-09-03 00:54:3441.23025-114.90180323°22km/h35594m8.7m/s-28.0°C0%0hPa0V00:00:0000:00:0000:00:00
KE7DJD2026-09-03 00:54:1241.22975-114.90112232°29km/h35476m5.1m/s-28.7°C0%0hPa0V00:00:0000:00:0000:00:00
KE7DJD2026-09-03 00:53:5141.22959-114.90137254°15km/h35366m6.1m/s-29.1°C0%0hPa0V00:00:0000:00:0000:00:00
KE7DJD2026-09-03 00:53:3141.22936-114.90199240°29km/h35243m3.7m/s-29.5°C0%0hPa0V00:00:0000:00:0000:00:00
KE7DJD2026-09-03 00:53:0941.22834-114.90172316°20km/h35123m4.6m/s-29.6°C0%0hPa0V00:00:0000:00:0000:00:00
KE7DJD2026-09-03 00:52:4841.22714-114.90054283°18km/h35010m-0.1m/s-30.4°C0%0hPa0V00:00:0000:00:0000:00:00
KE7DJD2026-09-03 00:52:2741.22625-114.89894291°29km/h34892m8.2m/s-30.2°C0%0hPa0V00:00:0000:00:0000:00:00
KE7DJD2026-09-03 00:51:5241.22648-114.89677232°24km/h34693m3.4m/s-30.2°C0%0hPa0V00:00:0000:00:0000:00:00
KE7DJD2026-09-03 00:51:3141.22768-114.89640168°18km/h34579m6.0m/s-29.8°C0%0hPa0V00:00:0000:00:0000:00:00
KE7DJD2026-09-03 00:51:1041.22922-114.89678171°78km/h34441m7.4m/s-30.1°C0%0hPa0V00:00:0000:00:0000:00:00
KE7DJD2026-09-03 00:50:4441.23045-114.89767118°35km/h34295m2.8m/s-30.5°C0%0hPa0V00:00:0000:00:0000:00:00
KE7DJD2026-09-03 00:50:1641.23109-114.89764138°35km/h34133m0.0m/s-29.8°C0%0hPa0V00:00:0000:00:0000:00:00
KE7DJD2026-09-03 00:49:5141.23121-114.8967316°18km/h33996m4.8m/s-29.9°C0%0hPa0V00:00:0000:00:0000:00:00
KE7DJD2026-09-03 00:49:2941.23142-114.89632176°51km/h33873m1.5m/s-29.8°C0%0hPa0V00:00:0000:00:0000:00:00
KE7DJD2026-09-03 00:49:0941.23184-114.89597196°40km/h33770m0.0m/s-30.9°C0%0hPa0V00:00:0000:00:0000:00:00
KE7DJD2026-09-03 00:48:4641.23219-114.8955022°37km/h33650m2.0m/s-31.6°C0%0hPa0V00:00:0000:00:0000:00:00
KE7DJD2026-09-03 00:48:2641.23280-114.8944848°20km/h33551m2.8m/s-31.5°C0%0hPa0V00:00:0000:00:0000:00:00
KE7DJD2026-09-03 00:48:0641.23353-114.89319210°22km/h33448m4.6m/s-31.4°C0%0hPa0V00:00:0000:00:0000:00:00
KE7DJD2026-09-03 00:47:4541.23418-114.89242216°42km/h33337m10.2m/s-32.4°C0%0hPa0V00:00:0000:00:0000:00:00
KE7DJD2026-09-03 00:47:2541.23531-114.89147250°46km/h33221m-0.1m/s-33.0°C0%0hPa0V00:00:0000:00:0000:00:00
KE7DJD2026-09-03 00:47:0141.23645-114.89116133°49km/h33088m2.8m/s-32.2°C0%0hPa0V00:00:0000:00:0000:00:00
KE7DJD2026-09-03 00:46:3741.23745-114.89062277°26km/h32956m0.7m/s-32.4°C0%0hPa0V00:00:0000:00:0000:00:00
KE7DJD2026-09-03 00:46:1841.23792-114.89034139°4km/h32839m6.7m/s-32.9°C0%0hPa0V00:00:0000:00:0000:00:00
KE7DJD2026-09-03 00:45:5741.23822-114.88991173°38km/h32713m3.3m/s-33.5°C0%0hPa0V00:00:0000:00:0000:00:00
KE7DJD2026-09-03 00:45:2941.23819-114.88845200°42km/h32556m8.7m/s-33.3°C0%0hPa0V00:00:0000:00:0000:00:00
KE7DJD2026-09-03 00:45:0841.23862-114.88692231°57km/h32454m1.1m/s-33.4°C0%0hPa0V00:00:0000:00:0000:00:00
KE7DJD2026-09-03 00:44:4641.23887-114.88490320°13km/h32338m1.3m/s-33.4°C0%0hPa0V00:00:0000:00:0000:00:00
KE7DJD2026-09-03 00:43:4441.24023-114.8822692°44km/h32030m1.6m/s-34.2°C0%0hPa0V00:00:0000:00:0000:00:00
KE7DJD2026-09-03 00:43:2041.23996-114.88137218°29km/h31913m4.5m/s-35.5°C0%0hPa0V00:00:0000:00:0000:00:00
KE7DJD2026-09-03 00:43:0041.23967-114.8816951°44km/h31796m2.1m/s-36.0°C0%0hPa0V00:00:0000:00:0000:00:00
KE7DJD2026-09-03 00:42:3941.23901-114.88135338°24km/h31686m5.9m/s-36.0°C0%0hPa0V00:00:0000:00:0000:00:00
KE7DJD2026-09-03 00:42:2041.23867-114.87993281°44km/h31567m2.0m/s-37.0°C0%0hPa0V00:00:0000:00:0000:00:00
KE7DJD2026-09-03 00:41:5841.23831-114.8792478°20km/h31446m6.6m/s-36.6°C0%0hPa0V00:00:0000:00:0000:00:00
KE7DJD2026-09-03 00:41:3641.23842-114.87823243°27km/h31330m8.5m/s-36.5°C0%0hPa0V00:00:0000:00:0000:00:00
KE7DJD2026-09-03 00:41:1441.23920-114.87690226°24km/h31206m6.2m/s-36.8°C0%0hPa0V00:00:0000:00:0000:00:00
KE7DJD2026-09-03 00:40:5341.23962-114.87636272°5km/h31078m6.3m/s-36.7°C0%0hPa0V00:00:0000:00:0000:00:00
KE7DJD2026-09-03 00:40:2941.23964-114.87543297°4km/h30947m8.0m/s-36.4°C0%0hPa0V00:00:0000:00:0000:00:00
KE7DJD2026-09-03 00:40:0841.24037-114.87512188°27km/h30824m4.4m/s-36.0°C0%0hPa0V00:00:0000:00:0000:00:00
KE7DJD2026-09-03 00:39:4741.24084-114.87427288°46km/h30710m3.6m/s-35.7°C0%0hPa0V00:00:0000:00:0000:00:00
KE7DJD2026-09-03 00:39:2741.24110-114.87366150°13km/h30599m9.1m/s-35.6°C0%0hPa0V00:00:0000:00:0000:00:00
KE7DJD2026-09-03 00:39:0541.24101-114.87342353°18km/h30489m4.8m/s-35.7°C0%0hPa0V00:00:0000:00:0000:00:00
KE7DJD2026-09-03 00:38:4341.24012-114.87250285°35km/h30371m3.5m/s-36.5°C0%0hPa0V00:00:0000:00:0000:00:00
KE7DJD2026-09-03 00:38:2241.24000-114.87159154°26km/h30256m2.1m/s-37.0°C0%0hPa0V00:00:0000:00:0000:00:00
KE7DJD2026-09-03 00:38:0041.24024-114.87025275°31km/h30134m1.3m/s-37.3°C0%0hPa0V00:00:0000:00:0000:00:00
KE7DJD2026-09-03 00:37:4041.24096-114.86964173°16km/h30020m6.7m/s-37.5°C0%0hPa0V00:00:0000:00:0000:00:00
KE7DJD2026-09-03 00:37:2041.24190-114.86945208°20km/h29904m7.3m/s-38.1°C0%0hPa0V00:00:0000:00:0000:00:00
KE7DJD2026-09-03 00:36:5841.24249-114.86825245°24km/h29788m5.5m/s-38.7°C0%0hPa0V00:00:0000:00:0000:00:00
KE7DJD2026-09-03 00:36:3741.24363-114.86739229°26km/h29664m8.4m/s-39.2°C0%0hPa0V00:00:0000:00:0000:00:00
KE7DJD2026-09-03 00:36:1641.24453-114.86605254°31km/h29547m4.4m/s-39.4°C0%0hPa0V00:00:0000:00:0000:00:00
KE7DJD2026-09-03 00:35:5641.24495-114.86530166°18km/h29431m2.5m/s-39.5°C0%0hPa0V00:00:0000:00:0000:00:00
KE7DJD2026-09-03 00:35:3641.24482-114.86452296°42km/h29314m5.1m/s-39.5°C0%0hPa0V00:00:0000:00:0000:00:00
KE7DJD2026-09-03 00:35:1441.24444-114.86340119°9km/h29194m4.2m/s-39.4°C0%0hPa0V00:00:0000:00:0000:00:00
KE7DJD2026-09-03 00:34:5441.24424-114.86228264°46km/h29076m2.1m/s-39.5°C0%0hPa0V00:00:0000:00:0000:00:00
KE7DJD2026-09-03 00:34:3341.24425-114.86134132°13km/h28965m7.7m/s-39.2°C0%0hPa0V00:00:0000:00:0000:00:00
KE7DJD2026-09-03 00:34:1441.24469-114.86049270°37km/h28851m7.3m/s-39.3°C0%0hPa0V00:00:0000:00:0000:00:00
KE7DJD2026-09-03 00:33:5341.24471-114.8594885°13km/h28735m6.8m/s-39.4°C0%0hPa0V00:00:0000:00:0000:00:00
KE7DJD2026-09-03 00:33:3341.24435-114.85879315°20km/h28629m7.2m/s-39.1°C0%0hPa0V00:00:0000:00:0000:00:00
KE7DJD2026-09-03 00:33:1241.24356-114.85727305°33km/h28508m6.2m/s-39.0°C0%0hPa0V00:00:0000:00:0000:00:00
KE7DJD2026-09-03 00:32:5141.24343-114.85550278°29km/h28392m7.8m/s-39.2°C0%0hPa0V00:00:0000:00:0000:00:00
KE7DJD2026-09-03 00:32:3141.24384-114.85366172°16km/h28266m5.6m/s-39.0°C0%0hPa0V00:00:0000:00:0000:00:00
KE7DJD2026-09-03 00:31:5041.24632-114.85121170°16km/h28023m7.7m/s-39.2°C0%0hPa0V00:00:0000:00:0000:00:00
KE7DJD2026-09-03 00:31:2941.24763-114.85068219°46km/h27902m6.8m/s-38.8°C0%0hPa0V00:00:0000:00:0000:00:00
KE7DJD2026-09-03 00:30:4841.24969-114.84808243°46km/h27673m6.3m/s-39.5°C0%0hPa0V00:00:0000:00:0000:00:00
KE7DJD2026-09-03 00:30:2741.25090-114.84698167°15km/h27565m7.1m/s-39.6°C0%0hPa0V00:00:0000:00:0000:00:00
KE7DJD2026-09-03 00:30:0741.25230-114.84626214°42km/h27451m4.1m/s-39.8°C0%0hPa0V00:00:0000:00:0000:00:00
KE7DJD2026-09-03 00:29:4741.25333-114.84568210°13km/h27343m4.1m/s-40.1°C0%0hPa0V00:00:0000:00:0000:00:00
KE7DJD2026-09-03 00:29:2641.25396-114.84439257°15km/h27229m6.9m/s-40.6°C0%0hPa0V00:00:0000:00:0000:00:00
KE7DJD2026-09-03 00:29:0541.25447-114.84348217°26km/h27121m6.4m/s-40.8°C0%0hPa0V00:00:0000:00:0000:00:00
KE7DJD2026-09-03 00:28:2441.25637-114.84308207°11km/h26900m7.3m/s-42.0°C0%0hPa0V00:00:0000:00:0000:00:00
KE7DJD2026-09-03 00:28:0441.25678-114.84260209°24km/h26782m5.4m/s-42.4°C0%0hPa0V00:00:0000:00:0000:00:00
KE7DJD2026-09-03 00:27:4341.25678-114.84196284°29km/h26669m4.3m/s-42.4°C0%0hPa0V00:00:0000:00:0000:00:00
KE7DJD2026-09-03 00:27:2341.25687-114.84074296°15km/h26546m6.3m/s-42.2°C0%0hPa0V00:00:0000:00:0000:00:00
KE7DJD2026-09-03 00:27:0241.25706-114.83937224°27km/h26433m5.2m/s-42.1°C0%0hPa0V00:00:0000:00:0000:00:00
KE7DJD2026-09-03 00:26:4241.25751-114.83803235°15km/h26312m5.7m/s-42.0°C0%0hPa0V00:00:0000:00:0000:00:00
KE7DJD2026-09-03 00:26:2141.25798-114.83686223°18km/h26196m5.9m/s-42.0°C0%0hPa0V00:00:0000:00:0000:00:00
KE7DJD2026-09-03 00:26:0041.25858-114.83648138°7km/h26086m5.9m/s-42.0°C0%0hPa0V00:00:0000:00:0000:00:00
KE7DJD2026-09-03 00:25:3941.25916-114.83623288°24km/h25973m4.1m/s-41.9°C0%0hPa0V00:00:0000:00:0000:00:00
KE7DJD2026-09-03 00:25:1941.25994-114.83584239°11km/h25870m5.3m/s-41.5°C0%0hPa0V00:00:0000:00:0000:00:00
KE7DJD2026-09-03 00:24:5841.26106-114.83504192°31km/h25758m5.1m/s-42.3°C0%0hPa0V00:00:0000:00:0000:00:00
KE7DJD2026-09-03 00:24:3841.26201-114.83495162°13km/h25648m5.3m/s-43.0°C0%0hPa0V00:00:0000:00:0000:00:00
KE7DJD2026-09-03 00:24:1741.26234-114.83493125°7km/h25544m6.8m/s-43.6°C0%0hPa0V00:00:0000:00:0000:00:00
KE7DJD2026-09-03 00:23:5841.26270-114.83491208°11km/h25440m4.8m/s-43.6°C0%0hPa0V00:00:0000:00:0000:00:00
KE7DJD2026-09-03 00:23:3741.26356-114.83476105°5km/h25333m4.7m/s-43.6°C0%0hPa0V00:00:0000:00:0000:00:00
KE7DJD2026-09-03 00:23:1641.26401-114.83493341°11km/h25232m4.2m/s-43.7°C0%0hPa0V00:00:0000:00:0000:00:00
KE7DJD2026-09-03 00:22:5641.26384-114.83548325°20km/h25125m4.4m/s-44.2°C0%0hPa0V00:00:0000:00:0000:00:00
KE7DJD2026-09-03 00:22:3641.26378-114.83578151°18km/h25023m5.8m/s-44.5°C0%0hPa0V00:00:0000:00:0000:00:00
KE7DJD2026-09-03 00:22:1541.26411-114.83591182°20km/h24916m4.9m/s-45.4°C0%0hPa0V00:00:0000:00:0000:00:00
KE7DJD2026-09-03 00:21:5441.26391-114.8360787°26km/h24812m4.1m/s-46.7°C0%0hPa0V00:00:0000:00:0000:00:00
KE7DJD2026-09-03 00:21:3441.26363-114.83582347°13km/h24702m4.7m/s-47.1°C0%0hPa0V00:00:0000:00:0000:00:00
KE7DJD2026-09-03 00:21:1341.26345-114.83501289°24km/h24589m6.5m/s-47.2°C0%0hPa0V00:00:0000:00:0000:00:00
KE7DJD2026-09-03 00:20:5241.26333-114.83383330°20km/h24483m5.5m/s-46.8°C0%0hPa0V00:00:0000:00:0000:00:00
KE7DJD2026-09-03 00:20:3141.26286-114.83315352°15km/h24372m5.0m/s-46.5°C0%0hPa0V00:00:0000:00:0000:00:00
KE7DJD2026-09-03 00:20:1141.26230-114.83243316°16km/h24265m5.9m/s-46.4°C0%0hPa0V00:00:0000:00:0000:00:00
KE7DJD2026-09-03 00:19:5041.26173-114.83167262°13km/h24157m5.1m/s-46.2°C0%0hPa0V00:00:0000:00:0000:00:00
KE7DJD2026-09-03 00:19:3141.26145-114.83092299°13km/h24052m4.6m/s-46.9°C0%0hPa0V00:00:0000:00:0000:00:00
KE7DJD2026-09-03 00:19:1041.26096-114.82955268°37km/h23946m3.2m/s-46.7°C0%0hPa0V00:00:0000:00:0000:00:00
KE7DJD2026-09-03 00:18:2741.26113-114.82633259°29km/h23735m7.0m/s-46.4°C0%0hPa0V00:00:0000:00:0000:00:00
KE7DJD2026-09-03 00:18:0741.26204-114.82506240°38km/h23626m5.9m/s-46.3°C0%0hPa0V00:00:0000:00:0000:00:00
KE7DJD2026-09-03 00:17:4641.26287-114.82390247°29km/h23517m4.0m/s-46.0°C0%0hPa0V00:00:0000:00:0000:00:00
KE7DJD2026-09-03 00:17:2641.26353-114.82324226°16km/h23409m4.2m/s-45.6°C0%0hPa0V00:00:0000:00:0000:00:00
KE7DJD2026-09-03 00:17:0541.26374-114.82236257°27km/h23299m4.9m/s-45.4°C0%0hPa0V00:00:0000:00:0000:00:00
KE7DJD2026-09-03 00:16:4441.26364-114.82135265°16km/h23197m5.7m/s-45.0°C0%0hPa0V00:00:0000:00:0000:00:00
KE7DJD2026-09-03 00:16:2441.26375-114.82076202°16km/h23089m5.5m/s-45.3°C0%0hPa0V00:00:0000:00:0000:00:00
KE7DJD2026-09-03 00:16:0341.26393-114.82097123°5km/h22985m4.5m/s-46.2°C0%0hPa0V00:00:0000:00:0000:00:00
KE7DJD2026-09-03 00:15:4341.26379-114.8212015km/h22882m5.9m/s-47.3°C0%0hPa0V00:00:0000:00:0000:00:00
KE7DJD2026-09-03 00:15:2241.26318-114.82088317°18km/h22785m5.1m/s-48.4°C0%0hPa0V00:00:0000:00:0000:00:00
KE7DJD2026-09-03 00:14:4141.26279-114.81982320°5km/h22590m4.6m/s-48.7°C0%0hPa0V00:00:0000:00:0000:00:00
KE7DJD2026-09-03 00:14:2141.26271-114.81927312°16km/h22489m2.8m/s-48.5°C0%0hPa0V00:00:0000:00:0000:00:00
KE7DJD2026-09-03 00:14:0041.26252-114.819067km/h22390m4.4m/s-48.5°C0%0hPa0V00:00:0000:00:0000:00:00
KE7DJD2026-09-03 00:13:3941.26234-114.81865251°5km/h22293m5.5m/s-48.3°C0%0hPa0V00:00:0000:00:0000:00:00
KE7DJD2026-09-03 00:13:1941.26240-114.81808288°7km/h22190m4.5m/s-48.3°C0%0hPa0V00:00:0000:00:0000:00:00
KE7DJD2026-09-03 00:12:5841.26241-114.81757243°4km/h22090m5.4m/s-48.2°C0%0hPa0V00:00:0000:00:0000:00:00
KE7DJD2026-09-03 00:12:3841.26254-114.81695266°2km/h21984m5.9m/s-47.7°C0%0hPa0V00:00:0000:00:0000:00:00
KE7DJD2026-09-03 00:12:1741.26268-114.81700146°13km/h21882m3.9m/s-47.3°C0%0hPa0V00:00:0000:00:0000:00:00
KE7DJD2026-09-03 00:11:5741.26302-114.81678212°13km/h21770m6.3m/s-46.7°C0%0hPa0V00:00:0000:00:0000:00:00
KE7DJD2026-09-03 00:11:3641.26356-114.81644194°15km/h21663m4.9m/s-47.3°C0%0hPa0V00:00:0000:00:0000:00:00
KE7DJD2026-09-03 00:11:1641.26460-114.81649181°18km/h21561m4.9m/s-47.5°C0%0hPa0V00:00:0000:00:0000:00:00
KE7DJD2026-09-03 00:10:5541.26566-114.81674170°11km/h21460m4.6m/s-47.7°C0%0hPa0V00:00:0000:00:0000:00:00
KE7DJD2026-09-03 00:10:3541.26640-114.8172592°11km/h21355m5.7m/s-47.2°C0%0hPa0V00:00:0000:00:0000:00:00
KE7DJD2026-09-03 00:10:1441.26680-114.8181269°15km/h21254m5.4m/s-46.7°C0%0hPa0V00:00:0000:00:0000:00:00
KE7DJD2026-09-03 00:09:5441.26664-114.8187414°13km/h21150m5.0m/s-46.9°C0%0hPa0V00:00:0000:00:0000:00:00
KE7DJD2026-09-03 00:09:3341.26621-114.8190666°16km/h21054m4.7m/s-47.0°C0%0hPa0V00:00:0000:00:0000:00:00
KE7DJD2026-09-03 00:09:1341.26582-114.8198047°13km/h20955m4.1m/s-46.9°C0%0hPa0V00:00:0000:00:0000:00:00
KE7DJD2026-09-03 00:08:5141.26481-114.8208930°33km/h20857m4.4m/s-47.4°C0%0hPa0V00:00:0000:00:0000:00:00
KE7DJD2026-09-03 00:08:3141.26414-114.8219798°11km/h20762m5.3m/s-47.4°C0%0hPa0V00:00:0000:00:0000:00:00
KE7DJD2026-09-03 00:08:1041.26382-114.8233169°24km/h20663m4.4m/s-48.2°C0%0hPa0V00:00:0000:00:0000:00:00
KE7DJD2026-09-03 00:07:5041.26289-114.8250750°37km/h20565m6.0m/s-48.3°C0%0hPa0V00:00:0000:00:0000:00:00
KE7DJD2026-09-03 00:07:2941.26118-114.8263028°37km/h20456m6.4m/s-49.2°C0%0hPa0V00:00:0000:00:0000:00:00
KE7DJD2026-09-03 00:07:0941.25958-114.8271336°35km/h20356m5.9m/s-48.9°C0%0hPa0V00:00:0000:00:0000:00:00
KE7DJD2026-09-03 00:06:4941.25817-114.8278916°33km/h20256m4.4m/s-48.6°C0%0hPa0V00:00:0000:00:0000:00:00
KE7DJD2026-09-03 00:06:2841.25708-114.8283824°15km/h20164m5.6m/s-49.4°C0%0hPa0V00:00:0000:00:0000:00:00
KE7DJD2026-09-03 00:06:0841.25648-114.8288031°22km/h20067m4.3m/s-49.6°C0%0hPa0V00:00:0000:00:0000:00:00
KE7DJD2026-09-03 00:05:4741.25611-114.8298125°26km/h19981m3.0m/s-50.3°C0%0hPa0V00:00:0000:00:0000:00:00
KE7DJD2026-09-03 00:05:2741.25599-114.83031321°5km/h19893m5.2m/s-50.6°C0%0hPa0V00:00:0000:00:0000:00:00
KE7DJD2026-09-03 00:05:0641.25595-114.83023133°2km/h19805m4.9m/s-50.1°C0%0hPa0V00:00:0000:00:0000:00:00
KE7DJD2026-09-03 00:04:4741.25615-114.83003205°11km/h19711m5.7m/s-49.6°C0%0hPa0V00:00:0000:00:0000:00:00
KE7DJD2026-09-03 00:04:2641.25658-114.83000175°13km/h19620m5.6m/s-49.6°C0%0hPa0V00:00:0000:00:0000:00:00
KE7DJD2026-09-03 00:04:0541.25714-114.82989210°11km/h19523m5.1m/s-48.6°C0%0hPa0V00:00:0000:00:0000:00:00
KE7DJD2026-09-03 00:03:4441.25759-114.82969261°18km/h19422m4.8m/s-47.8°C0%0hPa0V00:00:0000:00:0000:00:00
KE7DJD2026-09-03 00:03:2441.25795-114.82926308°27km/h19328m6.2m/s-47.3°C0%0hPa0V00:00:0000:00:0000:00:00
KE7DJD2026-09-03 00:02:4941.25701-114.8310823°16km/h19029m4.2m/s-48.4°C0%0hPa0V00:00:0000:00:0000:00:00
KE7DJD2026-09-03 00:02:2041.25634-114.8318771°18km/h18939m3.6m/s-47.8°C0%0hPa0V00:00:0000:00:0000:00:00
KE7DJD2026-09-03 00:01:5541.25551-114.8326418km/h18846m5.0m/s-47.9°C0%0hPa0V00:00:0000:00:0000:00:00
KE7DJD2026-09-03 00:01:3241.25474-114.8330020°24km/h18749m6.4m/s-47.7°C0%0hPa0V00:00:0000:00:0000:00:00
KE7DJD2026-09-03 00:01:0441.25388-114.8340147°26km/h18639m6.4m/s-47.5°C0%0hPa0V00:00:0000:00:0000:00:00
KE7DJD2026-09-03 00:00:4641.25289-114.8357255°47km/h18537m4.6m/s-47.3°C0%0hPa0V00:00:0000:00:0000:00:00
KE7DJD2026-09-03 00:00:2041.25166-114.8377745°35km/h18431m5.2m/s-48.0°C0%0hPa0V00:00:0000:00:0000:00:00
KE7DJD2026-09-02 23:59:5841.25086-114.8401438°53km/h18336m4.6m/s-48.5°C0%0hPa0V00:00:0000:00:0000:00:00
KE7DJD2026-09-02 23:59:3841.24942-114.8427952°62km/h18232m5.8m/s-48.1°C0%0hPa0V00:00:0000:00:0000:00:00
KE7DJD2026-09-02 23:59:1841.24738-114.8452830°58km/h18142m4.7m/s-49.3°C0%0hPa0V00:00:0000:00:0000:00:00
KE7DJD2026-09-02 23:58:5741.24543-114.8473626°33km/h18050m4.3m/s-50.2°C0%0hPa0V00:00:0000:00:0000:00:00
KE7DJD2026-09-02 23:58:3541.24426-114.8492461°38km/h17925m5.4m/s-49.2°C0%0hPa0V00:00:0000:00:0000:00:00
KE7DJD2026-09-02 23:58:1541.24322-114.8512687°29km/h17823m3.3m/s-48.4°C0%0hPa0V00:00:0000:00:0000:00:00
KE7DJD2026-09-02 23:57:5541.24247-114.8534277°40km/h17717m5.1m/s-47.5°C0%0hPa0V00:00:0000:00:0000:00:00
KE7DJD2026-09-02 23:57:3441.24190-114.8558272°33km/h17622m4.9m/s-47.0°C0%0hPa0V00:00:0000:00:0000:00:00
KE7DJD2026-09-02 23:57:1341.24160-114.8587880°53km/h17518m5.4m/s-47.1°C0%0hPa0V00:00:0000:00:0000:00:00
KE7DJD2026-09-02 23:56:5341.24124-114.8628075°73km/h17411m4.7m/s-47.8°C0%0hPa0V00:00:0000:00:0000:00:00
KE7DJD2026-09-02 23:56:3341.24045-114.8671576°60km/h17303m6.0m/s-48.1°C0%0hPa0V00:00:0000:00:0000:00:00
KE7DJD2026-09-02 23:56:1241.23915-114.8718672°77km/h17200m5.5m/s-48.7°C0%0hPa0V00:00:0000:00:0000:00:00
KE7DJD2026-09-02 23:55:5241.23736-114.8765458°75km/h17096m5.8m/s-49.2°C0%0hPa0V00:00:0000:00:0000:00:00
KE7DJD2026-09-02 23:55:3141.23536-114.8804361°64km/h16998m3.6m/s-48.5°C0%0hPa0V00:00:0000:00:0000:00:00
KE7DJD2026-09-02 23:55:1041.23325-114.8840851°60km/h16896m6.1m/s-47.9°C0%0hPa0V00:00:0000:00:0000:00:00
KE7DJD2026-09-02 23:54:4941.23095-114.8873046°68km/h16797m3.7m/s-46.9°C0%0hPa0V00:00:0000:00:0000:00:00


GPX KML Map

© wettersonde.net (DO2JMG) - 2026  -  -